createdAt,value
2018-08-25T00:01:32.701Z,97801.23
2018-08-25T00:04:01.235Z,97797.16
2018-08-25T00:06:29.709Z,97804.67
2018-08-25T00:08:58.154Z,97804.44
2018-08-25T00:11:26.651Z,97813.30
2018-08-25T00:13:55.095Z,97808.47
2018-08-25T00:16:23.580Z,97803.06
2018-08-25T00:18:52.014Z,97795.79
2018-08-25T00:21:20.497Z,97793.39
2018-08-25T00:23:48.946Z,97784.78
2018-08-25T00:26:17.409Z,97793.39
2018-08-25T00:28:45.842Z,97786.93
2018-08-25T00:31:19.560Z,97792.27
2018-08-25T00:33:48.001Z,97791.44
2018-08-25T00:36:16.455Z,97791.98
2018-08-25T00:38:44.935Z,97791.41
2018-08-25T00:41:13.647Z,97786.56
2018-08-25T00:43:42.141Z,97788.97
2018-08-25T00:46:10.623Z,97789.03
2018-08-25T00:48:39.112Z,97790.09
2018-08-25T00:51:07.605Z,97787.95
2018-08-25T00:53:36.568Z,97787.92
2018-08-25T00:56:05.109Z,97793.56
2018-08-25T00:58:33.639Z,97805.39
2018-08-25T01:01:02.405Z,97804.89
2018-08-25T01:03:30.877Z,97803.53
2018-08-25T01:05:59.353Z,97806.19
2018-08-25T01:08:27.815Z,97803.25
2018-08-25T01:10:56.278Z,97792.50
2018-08-25T01:13:24.749Z,97798.70
2018-08-25T01:15:53.190Z,97794.13
2018-08-25T01:18:21.714Z,97802.47
2018-08-25T01:20:50.755Z,97800.05
2018-08-25T01:23:19.325Z,97795.96
2018-08-25T01:25:47.790Z,97790.05
2018-08-25T01:28:16.248Z,97785.20
2018-08-25T01:30:44.686Z,97780.61
2018-08-25T01:33:13.241Z,97784.92
2018-08-25T01:35:41.676Z,97783.02
2018-08-25T01:38:10.190Z,97787.56
2018-08-25T01:40:38.709Z,97787.56
2018-08-25T01:43:07.222Z,97781.64
2018-08-25T01:45:35.655Z,97783.80
2018-08-25T01:48:04.193Z,97785.36
2018-08-25T01:50:32.634Z,97780.53
2018-08-25T01:53:01.126Z,97775.87
2018-08-25T01:55:29.671Z,97773.94
2018-08-25T01:57:58.136Z,97779.61
2018-08-25T02:00:26.631Z,97782.58
2018-08-25T02:02:55.117Z,97791.11
2018-08-25T02:05:23.587Z,97792.92
2018-08-25T02:07:52.066Z,97788.40
2018-08-25T02:10:20.515Z,97785.39
2018-08-25T02:12:49.000Z,97785.33
2018-08-25T02:15:17.469Z,97775.61
2018-08-25T02:17:45.946Z,97779.61
2018-08-25T02:20:14.393Z,97782.03
2018-08-25T02:22:42.873Z,97785.47
2018-08-25T02:25:11.338Z,97782.30
2018-08-25T02:27:39.801Z,97773.36
2018-08-25T02:30:08.268Z,97780.10
2018-08-25T02:32:36.767Z,97774.21
2018-08-25T02:35:05.602Z,97775.84
2018-08-25T02:37:34.041Z,97775.13
2018-08-25T02:40:02.543Z,97771.62
2018-08-25T02:42:31.030Z,97767.00
2018-08-25T02:44:59.499Z,97760.20
2018-08-25T02:47:27.921Z,97760.50
2018-08-25T02:49:56.389Z,97761.84
2018-08-25T02:52:24.836Z,97767.98
2018-08-25T02:54:53.307Z,97770.19
2018-08-25T02:57:21.729Z,97774.53
2018-08-25T02:59:50.193Z,97782.23
2018-08-25T03:02:18.633Z,97788.91
2018-08-25T03:04:47.107Z,97796.88
2018-08-25T03:07:15.550Z,97797.36
2018-08-25T03:09:44.011Z,97805.37
2018-08-25T03:12:12.461Z,97811.82
2018-08-25T03:14:40.924Z,97815.28
2018-08-25T03:17:09.398Z,97811.95
2018-08-25T03:19:37.871Z,97814.72
2018-08-25T03:22:06.346Z,97817.40
2018-08-25T03:24:34.868Z,97812.52
2018-08-25T03:27:03.341Z,97813.47
2018-08-25T03:29:31.814Z,97807.63
2018-08-25T03:32:00.261Z,97808.97
2018-08-25T03:34:28.735Z,97810.83
2018-08-25T03:36:57.166Z,97805.98
2018-08-25T03:39:25.646Z,97806.25
2018-08-25T03:41:54.082Z,97804.27
2018-08-25T03:44:22.548Z,97800.32
2018-08-25T03:46:50.970Z,97798.23
2018-08-25T03:49:19.444Z,97798.80
2018-08-25T03:51:47.894Z,97795.34
2018-08-25T03:54:16.365Z,97799.66
2018-08-25T03:56:44.806Z,97805.07
2018-08-25T03:59:13.534Z,97809.17
2018-08-25T04:01:42.066Z,97811.03
2018-08-25T04:04:10.457Z,97804.51
2018-08-25T04:06:38.889Z,97810.44
2018-08-25T04:09:09.938Z,97808.05
2018-08-25T04:11:38.431Z,97808.27
2018-08-25T04:14:07.810Z,97810.29
2018-08-25T04:16:36.323Z,97809.95
2018-08-25T04:19:04.805Z,97812.45
2018-08-25T04:21:33.259Z,97807.61
2018-08-25T04:24:01.779Z,97804.18
2018-08-25T04:26:30.236Z,97802.65
2018-08-25T04:28:58.711Z,97799.63
2018-08-25T04:31:27.158Z,97805.22
2018-08-25T04:33:55.640Z,97806.45
2018-08-25T04:36:24.184Z,97806.63
2018-08-25T04:38:52.637Z,97810.69
2018-08-25T04:41:21.156Z,97800.40
2018-08-25T04:43:49.591Z,97802.95
2018-08-25T04:46:18.062Z,97803.33
2018-08-25T04:48:46.545Z,97798.52
2018-08-25T04:51:15.573Z,97802.09
2018-08-25T04:53:44.246Z,97802.52
2018-08-25T04:56:12.730Z,97795.05
2018-08-25T04:58:41.169Z,97800.98
2018-08-25T05:01:09.898Z,97805.14
2018-08-25T05:03:38.380Z,97803.64
2018-08-25T05:06:06.886Z,97805.64
2018-08-25T05:08:35.332Z,97802.98
2018-08-25T05:11:03.800Z,97805.16
2018-08-25T05:13:32.278Z,97812.39
2018-08-25T05:16:00.757Z,97819.38
2018-08-25T05:18:29.302Z,97824.73
2018-08-25T05:20:57.775Z,97825.36
2018-08-25T05:23:26.202Z,97818.33
2018-08-25T05:25:54.678Z,97817.84
2018-08-25T05:28:23.122Z,97814.63
2018-08-25T05:30:51.597Z,97818.17
2018-08-25T05:33:20.085Z,97830.58
2018-08-25T05:35:48.562Z,97820.97
2018-08-25T05:38:17.014Z,97828.22
2018-08-25T05:40:45.473Z,97826.08
2018-08-25T05:43:13.929Z,97832.00
2018-08-25T05:45:42.405Z,97828.50
2018-08-25T05:48:10.855Z,97834.70
2018-08-25T05:50:39.331Z,97826.06
2018-08-25T05:53:07.885Z,97820.95
2018-08-25T05:55:36.353Z,97819.88
2018-08-25T05:58:04.851Z,97824.19
2018-08-25T06:00:33.384Z,97820.71
2018-08-25T06:03:01.850Z,97815.58
2018-08-25T06:05:30.375Z,97818.81
2018-08-25T06:07:58.878Z,97820.97
2018-08-25T06:10:27.357Z,97819.34
2018-08-25T06:12:57.530Z,97819.34
2018-08-25T06:15:26.013Z,97829.04
2018-08-25T06:17:57.366Z,97827.66
2018-08-25T06:20:25.904Z,97824.44
2018-08-25T06:22:54.647Z,97841.70
2018-08-25T06:25:23.114Z,97842.50
2018-08-25T06:27:51.710Z,97841.95
2018-08-25T06:30:20.207Z,97841.93
2018-08-25T06:32:48.657Z,97838.69
2018-08-25T06:35:17.126Z,97846.26
2018-08-25T06:37:45.577Z,97838.16
2018-08-25T06:40:14.054Z,97834.06
2018-08-25T06:42:42.605Z,97841.27
2018-08-25T06:45:11.046Z,97840.28
2018-08-25T06:47:39.601Z,97842.20
2018-08-25T06:50:08.078Z,97843.81
2018-08-25T06:52:36.537Z,97842.95
2018-08-25T06:55:05.035Z,97841.05
2018-08-25T06:57:33.614Z,97841.28
2018-08-25T07:00:02.049Z,97839.05
2018-08-25T07:02:30.517Z,97837.23
2018-08-25T07:04:58.977Z,97842.48
2018-08-25T07:07:27.458Z,97846.02
2018-08-25T07:09:55.892Z,97843.57
2018-08-25T07:12:24.347Z,97850.98
2018-08-25T07:14:52.765Z,97849.63
2018-08-25T07:17:21.255Z,97846.09
2018-08-25T07:19:50.054Z,97847.95
2018-08-25T07:22:18.529Z,97845.40
2018-08-25T07:24:47.025Z,97849.91
2018-08-25T07:27:15.510Z,97844.16
2018-08-25T07:29:43.954Z,97846.36
2018-08-25T07:32:12.479Z,97848.62
2018-08-25T07:41:42.374Z,97852.97
2018-08-25T07:44:11.125Z,97845.68
2018-08-25T07:46:40.146Z,97849.87
2018-08-25T07:49:08.639Z,97849.50
2018-08-25T07:51:37.123Z,97846.62
2018-08-25T07:54:05.647Z,97846.50
2018-08-25T07:56:34.133Z,97847.11
2018-08-25T07:59:02.595Z,97844.50
2018-08-25T08:01:31.132Z,97840.34
2018-08-25T08:03:59.569Z,97833.91
2018-08-25T08:06:28.678Z,97842.84
2018-08-25T08:08:57.150Z,97831.32
2018-08-25T08:11:25.618Z,97821.66
2018-08-25T08:13:54.121Z,97831.84
2018-08-25T08:16:22.614Z,97825.97
2018-08-25T08:18:51.071Z,97823.69
2018-08-25T08:21:19.542Z,97826.56
2018-08-25T08:23:48.098Z,97824.31
2018-08-25T08:26:16.656Z,97821.60
2018-08-25T08:28:45.183Z,97820.86
2018-08-25T08:31:13.672Z,97807.87
2018-08-25T08:33:42.157Z,97814.83
2018-08-25T08:36:10.625Z,97813.80
2018-08-25T08:38:39.721Z,97811.89
2018-08-25T08:41:08.217Z,97810.58
2018-08-25T08:43:37.218Z,97809.20
2018-08-25T08:46:06.531Z,97804.33
2018-08-25T08:48:35.039Z,97818.00
2018-08-25T08:51:03.678Z,97812.30
2018-08-25T08:53:32.145Z,97814.31
2018-08-25T08:56:00.735Z,97818.08
2018-08-25T08:58:29.289Z,97820.70
2018-08-25T09:00:57.762Z,97822.23
2018-08-25T09:03:26.308Z,97829.69
2018-08-25T09:05:54.769Z,97830.55
2018-08-25T09:08:23.271Z,97824.75
2018-08-25T09:10:51.936Z,97825.44
2018-08-25T09:13:21.487Z,97834.14
2018-08-25T09:15:49.961Z,97829.11
2018-08-25T09:18:18.438Z,97822.34
2018-08-25T09:20:48.806Z,97825.28
2018-08-25T09:23:17.278Z,97829.52
2018-08-25T09:25:45.800Z,97828.50
2018-08-25T09:28:14.407Z,97817.65
2018-08-25T09:30:42.870Z,97825.08
2018-08-25T09:33:11.369Z,97828.02
2018-08-25T09:35:39.873Z,97824.45
2018-08-25T09:38:08.329Z,97825.42
2018-08-25T09:40:37.285Z,97828.13
2018-08-25T09:43:06.277Z,97831.23
2018-08-25T09:45:34.769Z,97831.42
2018-08-25T09:48:03.282Z,97830.34
2018-08-25T09:50:31.741Z,97826.39
2018-08-25T09:53:00.250Z,97818.90
2018-08-25T09:55:28.722Z,97832.75
2018-08-25T09:57:57.210Z,97827.34
2018-08-25T10:00:25.773Z,97834.94
2018-08-25T10:02:54.276Z,97823.66
2018-08-25T10:05:22.909Z,97816.84
2018-08-25T10:07:51.365Z,97817.91
2018-08-25T10:10:19.917Z,97813.76
2018-08-25T10:12:48.389Z,97811.79
2018-08-25T10:15:16.897Z,97807.09
2018-08-25T10:17:45.399Z,97807.40
2018-08-25T10:20:13.877Z,97811.28
2018-08-25T10:22:42.364Z,97811.97
2018-08-25T10:25:10.849Z,97812.66
2018-08-25T10:27:39.353Z,97819.64
2018-08-25T10:30:08.710Z,97812.52
2018-08-25T10:32:37.178Z,97809.30
2018-08-25T10:35:05.779Z,97801.48
2018-08-25T10:37:34.529Z,97809.92
2018-08-25T10:40:03.038Z,97806.91
2018-08-25T10:42:31.506Z,97807.61
2018-08-25T10:45:00.571Z,97796.61
2018-08-25T10:47:29.044Z,97802.27
2018-08-25T10:49:57.550Z,97799.47
2018-08-25T10:52:26.078Z,97799.12
2018-08-25T10:54:54.589Z,97801.77
2018-08-25T10:57:23.069Z,97805.62
2018-08-25T10:59:51.574Z,97805.81
2018-08-25T11:02:26.284Z,97806.90
2018-08-25T11:04:54.817Z,97804.00
2018-08-25T11:09:51.853Z,97791.09
2018-08-25T11:12:20.524Z,97786.95
2018-08-25T11:14:49.061Z,97784.05
2018-08-25T11:17:17.538Z,97787.72
2018-08-25T11:19:46.037Z,97783.73
2018-08-25T11:22:14.502Z,97781.70
2018-08-25T11:24:43.018Z,97781.94
2018-08-25T11:27:11.567Z,97785.59
2018-08-25T11:29:40.087Z,97788.69
2018-08-25T11:32:08.634Z,97795.80
2018-08-25T11:36:06.271Z,97778.53
2018-08-25T11:38:34.743Z,97789.30
2018-08-25T11:41:03.931Z,97789.74
2018-08-25T11:43:32.444Z,97796.17
2018-08-25T11:46:00.965Z,97791.94
2018-08-25T11:48:29.438Z,97780.09
2018-08-25T11:50:57.944Z,97782.80
2018-08-25T11:53:26.393Z,97779.59
2018-08-25T11:55:54.887Z,97782.27
2018-08-25T11:58:23.364Z,97781.12
2018-08-25T12:00:51.891Z,97764.03
2018-08-25T12:03:20.396Z,97782.22
2018-08-25T12:05:48.932Z,97773.66
2018-08-25T12:08:17.400Z,97771.47
2018-08-25T12:10:45.922Z,97775.50
2018-08-25T12:13:14.438Z,97777.17
2018-08-25T12:15:42.934Z,97771.54
2018-08-25T12:18:11.408Z,97771.71
2018-08-25T12:20:39.925Z,97756.38
2018-08-25T12:23:08.488Z,97767.63
2018-08-25T12:25:36.991Z,97773.48
2018-08-25T12:28:05.589Z,97772.66
2018-08-25T12:30:34.758Z,97770.72
2018-08-25T12:33:03.206Z,97765.98
2018-08-25T12:35:31.722Z,97774.30
2018-08-25T12:38:00.207Z,97778.02
2018-08-25T12:40:28.712Z,97775.42
2018-08-25T12:42:57.231Z,97774.80
2018-08-25T12:45:25.733Z,97770.30
2018-08-25T12:47:54.191Z,97771.07
2018-08-25T12:50:22.702Z,97778.17
2018-08-25T12:52:51.164Z,97779.56
2018-08-25T12:55:19.694Z,97779.16
2018-08-25T12:57:49.486Z,97790.34
2018-08-25T13:00:17.985Z,97811.88
2018-08-25T13:02:46.564Z,97809.64
2018-08-25T13:05:15.185Z,97819.28
2018-08-25T13:07:43.704Z,97815.11
2018-08-25T13:10:12.191Z,97828.13
2018-08-25T13:12:40.654Z,97828.15
2018-08-25T13:15:09.224Z,97828.05
2018-08-25T13:17:39.777Z,97810.08
2018-08-25T13:20:08.303Z,97801.23
2018-08-25T13:22:36.765Z,97812.47
2018-08-25T13:25:05.382Z,97810.47
2018-08-25T13:27:33.777Z,97814.41
2018-08-25T13:30:02.299Z,97807.69
2018-08-25T13:32:30.762Z,97795.91
2018-08-25T13:34:59.226Z,97788.84
2018-08-25T13:37:27.714Z,97788.73
2018-08-25T13:39:56.196Z,97784.67
2018-08-25T13:42:24.649Z,97784.05
2018-08-25T13:44:53.179Z,97781.44
2018-08-25T13:47:21.864Z,97785.70
2018-08-25T13:49:51.342Z,97783.73
2018-08-25T13:52:19.886Z,97788.42
2018-08-25T13:54:48.477Z,97773.66
2018-08-25T13:57:17.300Z,97771.17
2018-08-25T13:59:45.964Z,97764.76
2018-08-25T14:02:14.471Z,97761.96
2018-08-25T14:04:42.905Z,97764.98
2018-08-25T14:07:11.468Z,97760.80
2018-08-25T14:09:40.050Z,97757.95
2018-08-25T14:12:08.549Z,97760.89
2018-08-25T14:14:37.250Z,97760.29
2018-08-25T14:17:05.871Z,97766.37
2018-08-25T14:19:34.375Z,97762.88
2018-08-25T14:22:02.854Z,97764.07
2018-08-25T14:24:31.309Z,97763.67
2018-08-25T14:26:59.785Z,97756.25
2018-08-25T14:29:28.213Z,97752.61
2018-08-25T14:31:56.720Z,97762.45
2018-08-25T14:34:25.171Z,97765.46
2018-08-25T14:36:53.675Z,97757.06
2018-08-25T14:39:22.208Z,97761.86
2018-08-25T14:41:50.713Z,97765.38
2018-08-25T14:44:19.183Z,97763.32
2018-08-25T14:46:47.682Z,97776.59
2018-08-25T14:49:16.118Z,97766.44
2018-08-25T14:51:44.655Z,97768.36
2018-08-25T14:54:13.121Z,97771.11
2018-08-25T14:56:41.619Z,97768.34
2018-08-25T14:59:10.069Z,97768.59
2018-08-25T15:01:38.561Z,97766.55
2018-08-25T15:04:07.090Z,97768.69
2018-08-25T15:06:35.617Z,97771.10
2018-08-25T15:09:06.394Z,97769.97
2018-08-25T15:11:34.894Z,97767.90
2018-08-25T15:14:03.378Z,97774.48
2018-08-25T15:16:31.872Z,97771.92
2018-08-25T15:19:00.376Z,97774.64
2018-08-25T15:21:28.867Z,97773.50
2018-08-25T15:23:57.423Z,97773.08
2018-08-25T15:26:25.963Z,97780.55
2018-08-25T15:28:54.416Z,97770.28
2018-08-25T15:31:22.897Z,97769.80
2018-08-25T15:33:51.392Z,97776.69
2018-08-25T15:36:19.858Z,97779.10
2018-08-25T15:38:48.331Z,97785.59
2018-08-25T15:41:16.773Z,97775.71
2018-08-25T15:43:45.338Z,97768.74
2018-08-25T15:46:13.782Z,97769.94
2018-08-25T15:48:42.286Z,97773.45
2018-08-25T15:51:10.774Z,97774.34
2018-08-25T15:53:39.253Z,97781.64
2018-08-25T15:56:07.929Z,97779.77
2018-08-25T15:58:36.427Z,97783.27
2018-08-25T16:01:04.957Z,97780.05
2018-08-25T16:03:33.462Z,97779.16
2018-08-25T16:06:02.000Z,97781.00
2018-08-25T16:08:30.454Z,97785.00
2018-08-25T16:10:58.914Z,97783.93
2018-08-25T16:13:27.441Z,97786.90
2018-08-25T16:15:55.915Z,97783.37
2018-08-25T16:18:24.394Z,97786.88
2018-08-25T16:20:52.851Z,97790.36
2018-08-25T16:23:21.334Z,97788.50
2018-08-25T16:25:50.034Z,97779.33
2018-08-25T16:28:18.834Z,97779.09
2018-08-25T16:30:54.707Z,97782.58
2018-08-25T16:33:23.564Z,97784.13
2018-08-25T16:35:53.609Z,97782.53
2018-08-25T16:38:22.112Z,97783.63
2018-08-25T16:40:50.741Z,97780.94
2018-08-25T16:43:19.684Z,97787.59
2018-08-25T16:45:48.190Z,97787.02
2018-08-25T16:48:16.657Z,97782.50
2018-08-25T16:50:45.090Z,97787.30
2018-08-25T16:53:13.704Z,97793.48
2018-08-25T16:55:42.374Z,97788.91
2018-08-25T16:58:10.896Z,97793.48
2018-08-25T17:00:39.434Z,97800.20
2018-08-25T17:03:07.973Z,97802.62
2018-08-25T17:05:36.449Z,97806.94
2018-08-25T17:08:04.967Z,97809.94
2018-08-25T17:10:33.425Z,97807.45
2018-08-25T17:13:01.913Z,97815.73
2018-08-25T17:15:30.395Z,97814.13
2018-08-25T17:17:58.915Z,97819.55
2018-08-25T17:20:27.405Z,97824.89
2018-08-25T17:22:55.961Z,97829.69
2018-08-25T17:25:24.515Z,97829.69
2018-08-25T17:27:53.021Z,97838.83
2018-08-25T17:30:21.503Z,97838.19
2018-08-25T17:32:49.992Z,97840.33
2018-08-25T17:35:18.473Z,97841.34
2018-08-25T17:37:47.057Z,97837.88
2018-08-25T17:40:15.564Z,97832.73
2018-08-25T17:42:44.054Z,97837.14
2018-08-25T17:45:12.667Z,97838.56
2018-08-25T17:47:41.069Z,97846.67
2018-08-25T17:50:09.572Z,97850.97
2018-08-25T17:52:38.073Z,97852.59
2018-08-25T17:55:06.633Z,97848.38
2018-08-25T17:57:35.195Z,97858.34
2018-08-25T18:00:03.790Z,97853.40
2018-08-25T18:02:32.264Z,97863.05
2018-08-25T18:05:00.786Z,97862.47
2018-08-25T18:07:29.274Z,97868.98
2018-08-25T18:09:57.803Z,97860.35
2018-08-25T18:12:26.272Z,97864.11
2018-08-25T18:14:54.783Z,97863.52
2018-08-25T18:17:23.285Z,97867.67
2018-08-25T18:19:51.810Z,97869.45
2018-08-25T18:22:20.275Z,97869.31
2018-08-25T18:24:48.793Z,97878.91
2018-08-25T18:27:17.269Z,97879.47
2018-08-25T18:29:45.798Z,97885.84
2018-08-25T18:32:14.646Z,97880.09
2018-08-25T18:34:43.218Z,97882.42
2018-08-25T18:37:11.689Z,97889.00
2018-08-25T18:39:40.190Z,97899.98
2018-08-25T18:42:08.694Z,97898.51
2018-08-25T18:44:37.187Z,97893.44
2018-08-25T18:47:06.248Z,97898.55
2018-08-25T18:49:34.866Z,97905.94
2018-08-25T18:52:03.359Z,97901.05
2018-08-25T18:54:31.883Z,97913.76
2018-08-25T18:57:00.333Z,97908.62
2018-08-25T18:59:29.046Z,97920.34
2018-08-25T19:01:57.591Z,97921.09
2018-08-25T19:04:26.085Z,97916.81
2018-08-25T19:06:54.563Z,97912.00
2018-08-25T19:09:23.090Z,97914.13
2018-08-25T19:11:51.554Z,97923.14
2018-08-25T19:14:20.165Z,97924.44
2018-08-25T19:16:48.549Z,97930.42
2018-08-25T19:19:17.054Z,97926.81
2018-08-25T19:21:45.537Z,97926.61
2018-08-25T19:24:14.075Z,97933.09
2018-08-25T19:26:42.530Z,97931.50
2018-08-25T19:29:11.043Z,97931.23
2018-08-25T19:31:39.567Z,97929.45
2018-08-25T19:34:08.081Z,97929.39
2018-08-25T19:36:36.584Z,97931.39
2018-08-25T19:39:07.850Z,97940.23
2018-08-25T19:41:36.427Z,97932.80
2018-08-25T19:44:04.947Z,97927.89
2018-08-25T19:46:33.437Z,97932.33
2018-08-25T19:49:01.993Z,97929.55
2018-08-25T19:51:30.502Z,97939.30
2018-08-25T19:53:59.026Z,97935.37
2018-08-25T19:56:27.606Z,97934.03
2018-08-25T19:58:56.069Z,97940.95
2018-08-25T20:01:24.749Z,97927.80
2018-08-25T20:03:53.210Z,97940.69
2018-08-25T20:06:21.726Z,97934.03
2018-08-25T20:08:50.250Z,97929.50
2018-08-25T20:11:18.745Z,97932.85
2018-08-25T20:13:47.229Z,97939.35
2018-08-25T20:16:15.989Z,97943.87
2018-08-25T20:18:44.528Z,97937.23
2018-08-25T20:21:13.146Z,97937.48
2018-08-25T20:23:41.892Z,97943.58
2018-08-25T20:26:10.393Z,97940.27
2018-08-25T20:28:38.879Z,97941.91
2018-08-25T20:31:07.429Z,97939.19
2018-08-25T20:33:35.904Z,97948.73
2018-08-25T20:36:04.437Z,97950.59
2018-08-25T20:38:32.911Z,97954.45
2018-08-25T20:41:01.409Z,97951.52
2018-08-25T20:43:29.871Z,97958.95
2018-08-25T20:45:58.554Z,97961.53
2018-08-25T20:48:27.196Z,97961.58
2018-08-25T20:50:55.739Z,97963.44
2018-08-25T20:53:24.288Z,97971.48
2018-08-25T20:55:52.826Z,97973.53
2018-08-25T20:58:21.620Z,97981.10
2018-08-25T21:00:50.302Z,97978.05
2018-08-25T21:03:18.780Z,97974.94
2018-08-25T21:05:47.331Z,97974.35
2018-08-25T21:08:15.838Z,97978.64
2018-08-25T21:10:45.290Z,97979.20
2018-08-25T21:13:13.764Z,97986.46
2018-08-25T21:15:42.305Z,97979.97
2018-08-25T21:18:10.742Z,97974.09
2018-08-25T21:20:39.239Z,97977.34
2018-08-25T21:23:07.697Z,97984.30
2018-08-25T21:25:36.215Z,97981.94
2018-08-25T21:28:04.751Z,97982.70
2018-08-25T21:30:33.237Z,97991.11
2018-08-25T21:33:01.715Z,97990.55
2018-08-25T21:35:30.192Z,97985.91
2018-08-25T21:37:58.699Z,97988.66
2018-08-25T21:40:27.211Z,97990.17
2018-08-25T21:42:55.730Z,97994.50
2018-08-25T21:45:24.905Z,97998.23
2018-08-25T21:47:53.457Z,97992.59
2018-08-25T21:50:22.025Z,97991.02
2018-08-25T21:52:50.526Z,97995.73
2018-08-25T21:55:18.973Z,97996.57
2018-08-25T21:57:47.475Z,97993.07
2018-08-25T22:00:16.051Z,97990.95
2018-08-25T22:02:44.572Z,97997.58
2018-08-25T22:05:13.090Z,97998.41
2018-08-25T22:07:41.598Z,97996.69
2018-08-25T22:10:10.103Z,97997.41
2018-08-25T22:12:38.650Z,97998.80
2018-08-25T22:15:07.203Z,98001.48
2018-08-25T22:17:35.700Z,97998.93
2018-08-25T22:20:04.281Z,97997.47
2018-08-25T22:22:33.163Z,97982.71
2018-08-25T22:25:01.643Z,97984.44
2018-08-25T22:27:30.226Z,97992.11
2018-08-25T22:29:58.717Z,97987.39
2018-08-25T22:32:27.214Z,97979.08
2018-08-25T22:34:55.834Z,97988.19
2018-08-25T22:37:24.333Z,97997.64
2018-08-25T22:39:52.810Z,97983.42
2018-08-25T22:42:21.306Z,97977.11
2018-08-25T22:44:49.773Z,97982.13
2018-08-25T22:47:18.299Z,97984.95
2018-08-25T22:49:46.778Z,97995.69
2018-08-25T22:52:15.281Z,98004.86
2018-08-25T22:54:43.790Z,98006.72
2018-08-25T22:57:12.281Z,98005.64
2018-08-25T22:59:40.746Z,98011.93
2018-08-25T23:02:09.233Z,98006.97
2018-08-25T23:04:37.758Z,98009.45
2018-08-25T23:07:06.248Z,97999.77
2018-08-25T23:09:34.728Z,97997.84
2018-08-25T23:12:03.265Z,97992.12
2018-08-25T23:14:31.723Z,97993.14
2018-08-25T23:17:00.205Z,97988.73
2018-08-25T23:19:28.666Z,97982.21
2018-08-25T23:21:57.173Z,97983.98
2018-08-25T23:24:25.647Z,97986.93
2018-08-25T23:26:54.146Z,97988.45
2018-08-25T23:29:22.606Z,97988.89
2018-08-25T23:31:51.118Z,97991.89
2018-08-25T23:34:19.600Z,97988.37
2018-08-25T23:36:48.080Z,97985.94
2018-08-25T23:39:16.625Z,97978.55
2018-08-25T23:41:45.091Z,97981.97
2018-08-25T23:44:13.753Z,97975.52
2018-08-25T23:46:42.213Z,97985.39
2018-08-25T23:49:10.713Z,97981.55
2018-08-25T23:51:39.177Z,97982.30
2018-08-25T23:54:07.771Z,97979.81
2018-08-25T23:56:36.229Z,97983.14
2018-08-25T23:59:04.753Z,97984.42
